sensor_id;sensor_type;location;lat;lon;timestamp;temperature;humidity
26952;DHT22;14507;52.418;13.398;2023-08-31T00:02:12;15.80;99.90
26952;DHT22;14507;52.418;13.398;2023-08-31T00:04:37;15.80;99.90
26952;DHT22;14507;52.418;13.398;2023-08-31T00:07:04;15.80;99.90
26952;DHT22;14507;52.418;13.398;2023-08-31T00:11:55;15.80;99.90
26952;DHT22;14507;52.418;13.398;2023-08-31T00:14:25;15.80;99.90
26952;DHT22;14507;52.418;13.398;2023-08-31T00:16:52;15.80;99.90
26952;DHT22;14507;52.418;13.398;2023-08-31T00:19:17;16.00;99.90
26952;DHT22;14507;52.418;13.398;2023-08-31T00:21:43;15.70;99.90
26952;DHT22;14507;52.418;13.398;2023-08-31T00:24:09;15.90;99.90
26952;DHT22;14507;52.418;13.398;2023-08-31T00:26:38;15.80;99.90
26952;DHT22;14507;52.418;13.398;2023-08-31T00:29:09;15.80;99.90
26952;DHT22;14507;52.418;13.398;2023-08-31T00:31:36;15.80;99.90
26952;DHT22;14507;52.418;13.398;2023-08-31T00:34:02;15.90;99.90
26952;DHT22;14507;52.418;13.398;2023-08-31T00:36:32;15.90;99.90
26952;DHT22;14507;52.418;13.398;2023-08-31T00:41:24;15.80;99.90
26952;DHT22;14507;52.418;13.398;2023-08-31T00:43:50;15.80;99.90
26952;DHT22;14507;52.418;13.398;2023-08-31T00:46:16;16.40;99.90
26952;DHT22;14507;52.418;13.398;2023-08-31T00:48:41;15.80;99.90
26952;DHT22;14507;52.418;13.398;2023-08-31T00:51:07;15.70;99.90
26952;DHT22;14507;52.418;13.398;2023-08-31T00:53:33;15.70;99.90
26952;DHT22;14507;52.418;13.398;2023-08-31T00:56:01;15.70;99.90
26952;DHT22;14507;52.418;13.398;2023-08-31T00:58:27;15.70;99.90
26952;DHT22;14507;52.418;13.398;2023-08-31T01:01:25;15.70;99.90
26952;DHT22;14507;52.418;13.398;2023-08-31T01:06:41;15.70;99.90
26952;DHT22;14507;52.418;13.398;2023-08-31T01:09:39;15.70;99.90
26952;DHT22;14507;52.418;13.398;2023-08-31T01:12:11;15.70;99.90
26952;DHT22;14507;52.418;13.398;2023-08-31T01:15:09;15.70;99.90
26952;DHT22;14507;52.418;13.398;2023-08-31T01:17:37;15.70;99.90
26952;DHT22;14507;52.418;13.398;2023-08-31T01:20:04;15.70;99.90
26952;DHT22;14507;52.418;13.398;2023-08-31T01:23:04;15.70;99.90
26952;DHT22;14507;52.418;13.398;2023-08-31T01:25:32;15.60;99.90
26952;DHT22;14507;52.418;13.398;2023-08-31T01:27:59;15.60;99.90
26952;DHT22;14507;52.418;13.398;2023-08-31T01:30:25;15.60;99.90
26952;DHT22;14507;52.418;13.398;2023-08-31T01:32:54;15.60;99.90
26952;DHT22;14507;52.418;13.398;2023-08-31T01:35:21;15.60;99.90
26952;DHT22;14507;52.418;13.398;2023-08-31T01:37:50;15.60;99.90
26952;DHT22;14507;52.418;13.398;2023-08-31T01:40:20;15.60;99.90
26952;DHT22;14507;52.418;13.398;2023-08-31T01:42:48;15.60;99.90
26952;DHT22;14507;52.418;13.398;2023-08-31T01:45:18;15.60;99.90
26952;DHT22;14507;52.418;13.398;2023-08-31T01:47:46;15.70;99.90
26952;DHT22;14507;52.418;13.398;2023-08-31T01:50:12;15.60;99.90
26952;DHT22;14507;52.418;13.398;2023-08-31T01:52:38;15.60;99.90
26952;DHT22;14507;52.418;13.398;2023-08-31T01:55:04;15.30;99.90
26952;DHT22;14507;52.418;13.398;2023-08-31T01:57:31;15.60;99.90
26952;DHT22;14507;52.418;13.398;2023-08-31T01:59:57;15.60;99.90
26952;DHT22;14507;52.418;13.398;2023-08-31T02:02:23;15.60;99.90
26952;DHT22;14507;52.418;13.398;2023-08-31T02:04:48;15.60;99.90
26952;DHT22;14507;52.418;13.398;2023-08-31T02:07:15;15.50;99.90
26952;DHT22;14507;52.418;13.398;2023-08-31T02:09:41;15.50;99.90
26952;DHT22;14507;52.418;13.398;2023-08-31T02:12:07;15.50;99.90
26952;DHT22;14507;52.418;13.398;2023-08-31T02:14:35;15.50;99.90
26952;DHT22;14507;52.418;13.398;2023-08-31T02:17:00;15.50;99.90
26952;DHT22;14507;52.418;13.398;2023-08-31T02:19:26;15.70;99.90
26952;DHT22;14507;52.418;13.398;2023-08-31T02:21:52;15.40;99.90
26952;DHT22;14507;52.418;13.398;2023-08-31T02:24:17;15.40;99.90
26952;DHT22;14507;52.418;13.398;2023-08-31T02:26:43;15.40;99.90
26952;DHT22;14507;52.418;13.398;2023-08-31T02:29:08;15.30;99.90
26952;DHT22;14507;52.418;13.398;2023-08-31T02:31:34;15.30;99.90
26952;DHT22;14507;52.418;13.398;2023-08-31T02:34:00;15.30;99.90
26952;DHT22;14507;52.418;13.398;2023-08-31T02:36:25;15.20;99.90
26952;DHT22;14507;52.418;13.398;2023-08-31T02:38:51;15.20;99.90
26952;DHT22;14507;52.418;13.398;2023-08-31T02:41:18;15.20;99.90
26952;DHT22;14507;52.418;13.398;2023-08-31T02:43:44;15.20;99.90
26952;DHT22;14507;52.418;13.398;2023-08-31T02:46:09;15.10;99.90
26952;DHT22;14507;52.418;13.398;2023-08-31T02:48:35;15.10;99.90
26952;DHT22;14507;52.418;13.398;2023-08-31T02:51:00;15.10;99.90
26952;DHT22;14507;52.418;13.398;2023-08-31T02:53:30;15.00;99.90
26952;DHT22;14507;52.418;13.398;2023-08-31T02:55:56;15.00;99.90
26952;DHT22;14507;52.418;13.398;2023-08-31T02:58:22;15.00;99.90
26952;DHT22;14507;52.418;13.398;2023-08-31T03:00:48;15.00;99.90
26952;DHT22;14507;52.418;13.398;2023-08-31T03:03:15;15.00;99.90
26952;DHT22;14507;52.418;13.398;2023-08-31T03:05:41;15.00;99.90
26952;DHT22;14507;52.418;13.398;2023-08-31T03:08:07;15.00;99.90
26952;DHT22;14507;52.418;13.398;2023-08-31T03:10:32;15.00;99.90
26952;DHT22;14507;52.418;13.398;2023-08-31T03:12:58;14.40;99.90
26952;DHT22;14507;52.418;13.398;2023-08-31T03:15:23;15.00;99.90
26952;DHT22;14507;52.418;13.398;2023-08-31T03:17:49;15.00;99.90
26952;DHT22;14507;52.418;13.398;2023-08-31T03:20:15;15.00;99.90
26952;DHT22;14507;52.418;13.398;2023-08-31T03:22:40;15.00;99.90
26952;DHT22;14507;52.418;13.398;2023-08-31T03:25:06;15.00;99.90
26952;DHT22;14507;52.418;13.398;2023-08-31T03:27:32;14.90;99.90
26952;DHT22;14507;52.418;13.398;2023-08-31T03:29:58;14.90;99.90
26952;DHT22;14507;52.418;13.398;2023-08-31T03:32:23;14.90;99.90
26952;DHT22;14507;52.418;13.398;2023-08-31T03:34:49;14.90;99.90
26952;DHT22;14507;52.418;13.398;2023-08-31T03:37:15;14.90;99.90
26952;DHT22;14507;52.418;13.398;2023-08-31T03:39:41;14.90;99.90
26952;DHT22;14507;52.418;13.398;2023-08-31T03:42:08;14.90;99.90
26952;DHT22;14507;52.418;13.398;2023-08-31T03:44:35;14.90;99.90
26952;DHT22;14507;52.418;13.398;2023-08-31T03:47:00;14.90;99.90
26952;DHT22;14507;52.418;13.398;2023-08-31T03:49:26;14.90;99.90
26952;DHT22;14507;52.418;13.398;2023-08-31T03:54:20;14.80;99.90
26952;DHT22;14507;52.418;13.398;2023-08-31T03:56:45;14.80;99.90
26952;DHT22;14507;52.418;13.398;2023-08-31T03:59:12;14.80;99.90
26952;DHT22;14507;52.418;13.398;2023-08-31T04:01:37;14.80;99.90
26952;DHT22;14507;52.418;13.398;2023-08-31T04:04:03;14.80;99.90
26952;DHT22;14507;52.418;13.398;2023-08-31T04:06:29;14.80;99.90
26952;DHT22;14507;52.418;13.398;2023-08-31T04:08:55;14.80;99.90
26952;DHT22;14507;52.418;13.398;2023-08-31T04:11:21;14.80;99.90
26952;DHT22;14507;52.418;13.398;2023-08-31T04:13:47;14.70;99.90
26952;DHT22;14507;52.418;13.398;2023-08-31T04:16:12;14.80;99.90
26952;DHT22;14507;52.418;13.398;2023-08-31T04:18:38;14.80;99.90
26952;DHT22;14507;52.418;13.398;2023-08-31T04:21:04;14.70;99.90
26952;DHT22;14507;52.418;13.398;2023-08-31T04:23:29;14.80;99.90
26952;DHT22;14507;52.418;13.398;2023-08-31T04:25:55;14.70;99.90
26952;DHT22;14507;52.418;13.398;2023-08-31T04:28:23;14.80;99.90
26952;DHT22;14507;52.418;13.398;2023-08-31T04:30:49;14.70;99.90
26952;DHT22;14507;52.418;13.398;2023-08-31T04:33:15;14.70;99.90
26952;DHT22;14507;52.418;13.398;2023-08-31T04:35:41;14.70;99.90
26952;DHT22;14507;52.418;13.398;2023-08-31T04:38:07;14.70;99.90
26952;DHT22;14507;52.418;13.398;2023-08-31T04:40:32;14.70;99.90
26952;DHT22;14507;52.418;13.398;2023-08-31T04:42:58;14.70;99.90
26952;DHT22;14507;52.418;13.398;2023-08-31T04:45:24;14.70;99.90
26952;DHT22;14507;52.418;13.398;2023-08-31T04:47:49;14.70;99.90
26952;DHT22;14507;52.418;13.398;2023-08-31T04:50:16;14.70;99.90
26952;DHT22;14507;52.418;13.398;2023-08-31T04:52:42;14.70;99.90
26952;DHT22;14507;52.418;13.398;2023-08-31T04:55:08;14.70;99.90
26952;DHT22;14507;52.418;13.398;2023-08-31T04:57:34;14.70;99.90
26952;DHT22;14507;52.418;13.398;2023-08-31T05:00:00;14.70;99.90
26952;DHT22;14507;52.418;13.398;2023-08-31T05:02:27;14.70;99.90
26952;DHT22;14507;52.418;13.398;2023-08-31T05:04:52;14.70;99.90
26952;DHT22;14507;52.418;13.398;2023-08-31T05:07:18;14.80;99.90
26952;DHT22;14507;52.418;13.398;2023-08-31T05:09:44;14.80;99.90
26952;DHT22;14507;52.418;13.398;2023-08-31T05:12:09;14.80;99.90
26952;DHT22;14507;52.418;13.398;2023-08-31T05:14:35;14.80;99.90
26952;DHT22;14507;52.418;13.398;2023-08-31T05:17:03;14.90;99.90
26952;DHT22;14507;52.418;13.398;2023-08-31T05:19:30;14.60;99.90
26952;DHT22;14507;52.418;13.398;2023-08-31T05:21:56;14.90;99.90
26952;DHT22;14507;52.418;13.398;2023-08-31T05:24:21;14.90;99.90
26952;DHT22;14507;52.418;13.398;2023-08-31T05:26:48;14.90;99.90
26952;DHT22;14507;52.418;13.398;2023-08-31T05:29:14;15.00;99.90
26952;DHT22;14507;52.418;13.398;2023-08-31T05:31:39;15.00;99.90
26952;DHT22;14507;52.418;13.398;2023-08-31T05:34:05;14.90;99.90
26952;DHT22;14507;52.418;13.398;2023-08-31T05:36:31;14.90;99.90
26952;DHT22;14507;52.418;13.398;2023-08-31T05:41:22;14.90;99.90
26952;DHT22;14507;52.418;13.398;2023-08-31T05:43:48;14.90;99.90
26952;DHT22;14507;52.418;13.398;2023-08-31T05:46:14;14.90;99.90
26952;DHT22;14507;52.418;13.398;2023-08-31T05:48:39;14.90;99.90
26952;DHT22;14507;52.418;13.398;2023-08-31T05:51:05;14.90;99.90
26952;DHT22;14507;52.418;13.398;2023-08-31T05:53:31;14.90;99.90
26952;DHT22;14507;52.418;13.398;2023-08-31T05:55:58;14.90;99.90
26952;DHT22;14507;52.418;13.398;2023-08-31T05:58:33;14.90;99.90
26952;DHT22;14507;52.418;13.398;2023-08-31T06:01:00;14.80;99.90
26952;DHT22;14507;52.418;13.398;2023-08-31T06:03:26;14.90;99.90
26952;DHT22;14507;52.418;13.398;2023-08-31T06:05:52;15.00;99.90
26952;DHT22;14507;52.418;13.398;2023-08-31T06:08:17;15.10;99.90
26952;DHT22;14507;52.418;13.398;2023-08-31T06:10:43;15.10;99.90
26952;DHT22;14507;52.418;13.398;2023-08-31T06:13:08;15.10;99.90
26952;DHT22;14507;52.418;13.398;2023-08-31T06:15:34;15.10;99.90
26952;DHT22;14507;52.418;13.398;2023-08-31T06:18:00;15.10;99.90
26952;DHT22;14507;52.418;13.398;2023-08-31T06:20:25;15.20;99.90
26952;DHT22;14507;52.418;13.398;2023-08-31T06:22:51;15.20;99.90
26952;DHT22;14507;52.418;13.398;2023-08-31T06:25:17;15.20;99.90
26952;DHT22;14507;52.418;13.398;2023-08-31T06:27:44;15.30;99.90
26952;DHT22;14507;52.418;13.398;2023-08-31T06:30:10;15.40;99.90
26952;DHT22;14507;52.418;13.398;2023-08-31T06:32:45;15.40;99.90
26952;DHT22;14507;52.418;13.398;2023-08-31T06:35:12;15.40;99.90
26952;DHT22;14507;52.418;13.398;2023-08-31T06:37:38;15.60;99.90
26952;DHT22;14507;52.418;13.398;2023-08-31T06:40:06;15.60;99.90
26952;DHT22;14507;52.418;13.398;2023-08-31T06:42:32;15.60;99.90
26952;DHT22;14507;52.418;13.398;2023-08-31T06:44:57;15.60;99.90
26952;DHT22;14507;52.418;13.398;2023-08-31T06:47:23;15.50;99.90
26952;DHT22;14507;52.418;13.398;2023-08-31T06:49:49;15.50;99.90
26952;DHT22;14507;52.418;13.398;2023-08-31T06:52:15;15.50;99.90
26952;DHT22;14507;52.418;13.398;2023-08-31T06:54:41;15.50;99.90
26952;DHT22;14507;52.418;13.398;2023-08-31T06:57:07;15.40;99.90
26952;DHT22;14507;52.418;13.398;2023-08-31T06:59:33;15.40;99.90
26952;DHT22;14507;52.418;13.398;2023-08-31T07:01:58;15.40;99.90
26952;DHT22;14507;52.418;13.398;2023-08-31T07:04:24;15.50;99.90
26952;DHT22;14507;52.418;13.398;2023-08-31T07:06:52;15.30;99.90
26952;DHT22;14507;52.418;13.398;2023-08-31T07:09:18;15.30;99.90
26952;DHT22;14507;52.418;13.398;2023-08-31T07:11:43;15.40;99.90
26952;DHT22;14507;52.418;13.398;2023-08-31T07:14:09;15.30;99.90
26952;DHT22;14507;52.418;13.398;2023-08-31T07:16:35;15.30;99.90
26952;DHT22;14507;52.418;13.398;2023-08-31T07:19:00;15.30;99.90
26952;DHT22;14507;52.418;13.398;2023-08-31T07:21:26;15.20;99.90
26952;DHT22;14507;52.418;13.398;2023-08-31T07:23:52;15.20;99.90
26952;DHT22;14507;52.418;13.398;2023-08-31T07:26:18;15.30;99.90
26952;DHT22;14507;52.418;13.398;2023-08-31T07:28:44;15.30;99.90
26952;DHT22;14507;52.418;13.398;2023-08-31T07:31:10;15.40;99.90
26952;DHT22;14507;52.418;13.398;2023-08-31T07:33:35;15.40;99.90
26952;DHT22;14507;52.418;13.398;2023-08-31T07:36:02;15.50;99.90
26952;DHT22;14507;52.418;13.398;2023-08-31T07:38:30;15.50;99.90
26952;DHT22;14507;52.418;13.398;2023-08-31T07:40:56;15.60;99.90
26952;DHT22;14507;52.418;13.398;2023-08-31T07:43:21;15.60;99.90
26952;DHT22;14507;52.418;13.398;2023-08-31T07:45:47;15.80;99.90
26952;DHT22;14507;52.418;13.398;2023-08-31T07:48:13;16.00;99.90
26952;DHT22;14507;52.418;13.398;2023-08-31T07:50:42;16.10;99.90
26952;DHT22;14507;52.418;13.398;2023-08-31T07:53:08;16.30;99.90
26952;DHT22;14507;52.418;13.398;2023-08-31T07:58:01;16.60;99.90
26952;DHT22;14507;52.418;13.398;2023-08-31T08:02:53;16.60;99.90
26952;DHT22;14507;52.418;13.398;2023-08-31T08:05:18;16.50;99.90
26952;DHT22;14507;52.418;13.398;2023-08-31T08:10:11;16.10;99.90
26952;DHT22;14507;52.418;13.398;2023-08-31T08:12:41;16.80;99.90
26952;DHT22;14507;52.418;13.398;2023-08-31T08:15:10;17.40;99.90
26952;DHT22;14507;52.418;13.398;2023-08-31T08:17:36;18.10;99.90
26952;DHT22;14507;52.418;13.398;2023-08-31T08:22:28;19.10;99.90
26952;DHT22;14507;52.418;13.398;2023-08-31T08:24:54;19.60;99.90
26952;DHT22;14507;52.418;13.398;2023-08-31T08:27:20;19.60;99.90
26952;DHT22;14507;52.418;13.398;2023-08-31T08:29:46;19.50;99.90
26952;DHT22;14507;52.418;13.398;2023-08-31T08:32:12;19.50;99.90
26952;DHT22;14507;52.418;13.398;2023-08-31T08:34:38;19.80;99.90
26952;DHT22;14507;52.418;13.398;2023-08-31T08:37:04;20.40;99.90
26952;DHT22;14507;52.418;13.398;2023-08-31T08:39:30;21.30;99.90
26952;DHT22;14507;52.418;13.398;2023-08-31T08:41:58;21.50;99.90
26952;DHT22;14507;52.418;13.398;2023-08-31T08:44:33;21.20;99.90
26952;DHT22;14507;52.418;13.398;2023-08-31T08:47:00;21.70;99.40
26952;DHT22;14507;52.418;13.398;2023-08-31T08:49:33;21.80;99.90
26952;DHT22;14507;52.418;13.398;2023-08-31T08:52:01;21.80;98.00
26952;DHT22;14507;52.418;13.398;2023-08-31T08:56:54;21.70;98.50
26952;DHT22;14507;52.418;13.398;2023-08-31T08:59:22;22.30;98.10
26952;DHT22;14507;52.418;13.398;2023-08-31T09:01:47;22.30;98.30
26952;DHT22;14507;52.418;13.398;2023-08-31T09:06:40;23.10;98.40
26952;DHT22;14507;52.418;13.398;2023-08-31T09:09:08;23.00;95.60
26952;DHT22;14507;52.418;13.398;2023-08-31T09:11:34;22.70;95.70
26952;DHT22;14507;52.418;13.398;2023-08-31T09:14:13;22.50;97.60
26952;DHT22;14507;52.418;13.398;2023-08-31T09:16:42;21.80;97.90
26952;DHT22;14507;52.418;13.398;2023-08-31T09:19:18;22.00;95.40
26952;DHT22;14507;52.418;13.398;2023-08-31T09:21:44;21.60;95.60
26952;DHT22;14507;52.418;13.398;2023-08-31T09:24:11;21.10;96.60
26952;DHT22;14507;52.418;13.398;2023-08-31T09:26:39;20.90;98.10
26952;DHT22;14507;52.418;13.398;2023-08-31T09:29:05;21.40;98.20
26952;DHT22;14507;52.418;13.398;2023-08-31T09:31:31;22.00;97.00
26952;DHT22;14507;52.418;13.398;2023-08-31T09:33:57;22.20;95.60
26952;DHT22;14507;52.418;13.398;2023-08-31T09:36:23;22.00;95.90
26952;DHT22;14507;52.418;13.398;2023-08-31T09:38:48;21.70;97.00
26952;DHT22;14507;52.418;13.398;2023-08-31T09:41:14;21.30;96.70
26952;DHT22;14507;52.418;13.398;2023-08-31T09:43:41;20.80;96.90
26952;DHT22;14507;52.418;13.398;2023-08-31T09:46:08;20.60;97.50
26952;DHT22;14507;52.418;13.398;2023-08-31T09:48:35;20.40;97.20
26952;DHT22;14507;52.418;13.398;2023-08-31T09:51:04;20.30;98.00
26952;DHT22;14507;52.418;13.398;2023-08-31T09:53:31;20.90;96.30
26952;DHT22;14507;52.418;13.398;2023-08-31T09:55:57;21.90;94.60
26952;DHT22;14507;52.418;13.398;2023-08-31T10:00:51;23.60;91.50
26952;DHT22;14507;52.418;13.398;2023-08-31T10:03:17;23.60;91.70
26952;DHT22;14507;52.418;13.398;2023-08-31T10:05:44;24.20;91.10
26952;DHT22;14507;52.418;13.398;2023-08-31T10:08:11;24.30;91.10
26952;DHT22;14507;52.418;13.398;2023-08-31T10:10:37;23.80;90.70
26952;DHT22;14507;52.418;13.398;2023-08-31T10:13:05;23.40;91.10
26952;DHT22;14507;52.418;13.398;2023-08-31T10:15:35;22.90;91.30
26952;DHT22;14507;52.418;13.398;2023-08-31T10:18:02;22.40;92.20
26952;DHT22;14507;52.418;13.398;2023-08-31T10:20:29;21.90;93.50
26952;DHT22;14507;52.418;13.398;2023-08-31T10:23:06;21.20;93.00
26952;DHT22;14507;52.418;13.398;2023-08-31T10:28:20;20.80;94.00
26952;DHT22;14507;52.418;13.398;2023-08-31T10:31:05;20.60;94.50
26952;DHT22;14507;52.418;13.398;2023-08-31T10:33:41;20.50;94.80
26952;DHT22;14507;52.418;13.398;2023-08-31T10:36:18;20.40;95.00
26952;DHT22;14507;52.418;13.398;2023-08-31T10:38:47;20.30;95.30
26952;DHT22;14507;52.418;13.398;2023-08-31T10:41:26;19.20;94.50
26952;DHT22;14507;52.418;13.398;2023-08-31T10:43:57;19.90;95.70
26952;DHT22;14507;52.418;13.398;2023-08-31T10:46:35;19.70;99.20
26952;DHT22;14507;52.418;13.398;2023-08-31T10:51:36;18.70;99.90
26952;DHT22;14507;52.418;13.398;2023-08-31T10:54:08;18.30;99.90
26952;DHT22;14507;52.418;13.398;2023-08-31T10:59:24;17.60;99.90
26952;DHT22;14507;52.418;13.398;2023-08-31T11:01:59;17.60;99.90
26952;DHT22;14507;52.418;13.398;2023-08-31T11:04:27;17.50;99.90
26952;DHT22;14507;52.418;13.398;2023-08-31T11:09:38;17.40;99.90
26952;DHT22;14507;52.418;13.398;2023-08-31T11:12:04;17.50;99.90
26952;DHT22;14507;52.418;13.398;2023-08-31T11:14:30;17.80;99.90
26952;DHT22;14507;52.418;13.398;2023-08-31T11:16:56;18.10;99.90
26952;DHT22;14507;52.418;13.398;2023-08-31T11:19:22;19.00;99.90
26952;DHT22;14507;52.418;13.398;2023-08-31T11:21:48;18.70;99.90
26952;DHT22;14507;52.418;13.398;2023-08-31T11:24:16;19.00;99.90
26952;DHT22;14507;52.418;13.398;2023-08-31T11:29:08;19.00;99.90
26952;DHT22;14507;52.418;13.398;2023-08-31T11:31:38;19.00;99.90
26952;DHT22;14507;52.418;13.398;2023-08-31T11:34:11;19.10;99.90
26952;DHT22;14507;52.418;13.398;2023-08-31T11:36:37;19.60;99.90
26952;DHT22;14507;52.418;13.398;2023-08-31T11:39:03;19.30;99.90
26952;DHT22;14507;52.418;13.398;2023-08-31T11:41:36;19.50;99.90
26952;DHT22;14507;52.418;13.398;2023-08-31T11:44:03;19.70;99.90
26952;DHT22;14507;52.418;13.398;2023-08-31T11:46:30;19.80;99.90
26952;DHT22;14507;52.418;13.398;2023-08-31T11:48:58;20.00;99.90
26952;DHT22;14507;52.418;13.398;2023-08-31T11:51:24;20.20;99.90
26952;DHT22;14507;52.418;13.398;2023-08-31T11:53:50;20.30;99.90
26952;DHT22;14507;52.418;13.398;2023-08-31T11:56:15;20.40;99.90
26952;DHT22;14507;52.418;13.398;2023-08-31T11:58:42;20.40;99.90
26952;DHT22;14507;52.418;13.398;2023-08-31T12:01:08;20.40;99.90
26952;DHT22;14507;52.418;13.398;2023-08-31T12:03:44;20.40;99.90
26952;DHT22;14507;52.418;13.398;2023-08-31T12:06:10;20.40;99.90
26952;DHT22;14507;52.418;13.398;2023-08-31T12:08:37;20.20;99.90
26952;DHT22;14507;52.418;13.398;2023-08-31T12:11:06;20.10;99.90
26952;DHT22;14507;52.418;13.398;2023-08-31T12:13:32;20.10;99.90
26952;DHT22;14507;52.418;13.398;2023-08-31T12:20:51;19.80;99.90
26952;DHT22;14507;52.418;13.398;2023-08-31T12:23:17;19.70;99.90
26952;DHT22;14507;52.418;13.398;2023-08-31T12:25:52;19.60;99.90
26952;DHT22;14507;52.418;13.398;2023-08-31T12:28:19;19.60;99.90
26952;DHT22;14507;52.418;13.398;2023-08-31T12:30:54;19.60;99.90
26952;DHT22;14507;52.418;13.398;2023-08-31T12:35:48;19.50;99.90
26952;DHT22;14507;52.418;13.398;2023-08-31T12:38:14;19.50;99.90
26952;DHT22;14507;52.418;13.398;2023-08-31T12:40:40;19.40;99.90
26952;DHT22;14507;52.418;13.398;2023-08-31T12:43:06;19.30;99.90
26952;DHT22;14507;52.418;13.398;2023-08-31T12:45:32;19.30;99.90
26952;DHT22;14507;52.418;13.398;2023-08-31T12:47:59;19.20;99.90
26952;DHT22;14507;52.418;13.398;2023-08-31T12:50:24;19.00;99.90
26952;DHT22;14507;52.418;13.398;2023-08-31T12:52:50;18.80;99.90
26952;DHT22;14507;52.418;13.398;2023-08-31T12:55:16;18.70;99.90
26952;DHT22;14507;52.418;13.398;2023-08-31T12:57:43;18.60;99.90
26952;DHT22;14507;52.418;13.398;2023-08-31T13:00:10;18.30;99.90
26952;DHT22;14507;52.418;13.398;2023-08-31T13:02:39;18.20;99.90
26952;DHT22;14507;52.418;13.398;2023-08-31T13:05:06;18.30;99.90
26952;DHT22;14507;52.418;13.398;2023-08-31T13:07:32;18.30;99.90
26952;DHT22;14507;52.418;13.398;2023-08-31T13:10:00;18.50;99.90
26952;DHT22;14507;52.418;13.398;2023-08-31T13:12:25;18.70;99.90
26952;DHT22;14507;52.418;13.398;2023-08-31T13:14:51;18.80;99.90
26952;DHT22;14507;52.418;13.398;2023-08-31T13:17:17;18.90;99.90
26952;DHT22;14507;52.418;13.398;2023-08-31T13:19:43;19.00;99.90
26952;DHT22;14507;52.418;13.398;2023-08-31T13:22:08;19.10;99.90
26952;DHT22;14507;52.418;13.398;2023-08-31T13:24:34;19.20;99.80
26952;DHT22;14507;52.418;13.398;2023-08-31T13:27:00;19.10;99.10
26952;DHT22;14507;52.418;13.398;2023-08-31T13:29:25;19.20;99.90
26952;DHT22;14507;52.418;13.398;2023-08-31T13:31:51;19.00;99.20
26952;DHT22;14507;52.418;13.398;2023-08-31T13:34:17;19.00;98.70
26952;DHT22;14507;52.418;13.398;2023-08-31T13:39:10;18.80;99.30
26952;DHT22;14507;52.418;13.398;2023-08-31T13:41:36;18.80;99.90
26952;DHT22;14507;52.418;13.398;2023-08-31T13:44:02;18.80;99.90
26952;DHT22;14507;52.418;13.398;2023-08-31T13:46:27;18.70;99.90
26952;DHT22;14507;52.418;13.398;2023-08-31T13:48:53;18.70;98.80
26952;DHT22;14507;52.418;13.398;2023-08-31T13:51:18;18.60;99.20
26952;DHT22;14507;52.418;13.398;2023-08-31T13:53:45;18.60;99.90
26952;DHT22;14507;52.418;13.398;2023-08-31T13:56:11;18.50;99.20
26952;DHT22;14507;52.418;13.398;2023-08-31T14:01:03;18.20;99.90
26952;DHT22;14507;52.418;13.398;2023-08-31T14:03:29;18.00;99.90
26952;DHT22;14507;52.418;13.398;2023-08-31T14:05:55;17.80;99.90
26952;DHT22;14507;52.418;13.398;2023-08-31T14:08:20;17.60;99.90
26952;DHT22;14507;52.418;13.398;2023-08-31T14:10:46;17.30;99.90
26952;DHT22;14507;52.418;13.398;2023-08-31T14:13:11;17.10;99.90
26952;DHT22;14507;52.418;13.398;2023-08-31T14:15:37;17.00;99.90
26952;DHT22;14507;52.418;13.398;2023-08-31T14:18:09;16.90;99.90
26952;DHT22;14507;52.418;13.398;2023-08-31T14:20:35;16.90;99.90
26952;DHT22;14507;52.418;13.398;2023-08-31T14:23:00;16.90;99.90
26952;DHT22;14507;52.418;13.398;2023-08-31T14:25:26;16.90;99.90
26952;DHT22;14507;52.418;13.398;2023-08-31T14:27:51;16.90;99.90
26952;DHT22;14507;52.418;13.398;2023-08-31T14:30:17;16.90;99.90
26952;DHT22;14507;52.418;13.398;2023-08-31T14:32:43;16.90;99.90
26952;DHT22;14507;52.418;13.398;2023-08-31T14:35:08;17.00;99.90
26952;DHT22;14507;52.418;13.398;2023-08-31T14:37:34;17.10;99.90
26952;DHT22;14507;52.418;13.398;2023-08-31T14:40:00;17.20;99.90
26952;DHT22;14507;52.418;13.398;2023-08-31T14:42:25;17.20;99.90
26952;DHT22;14507;52.418;13.398;2023-08-31T14:44:51;17.20;99.90
26952;DHT22;14507;52.418;13.398;2023-08-31T14:47:17;17.20;99.90
26952;DHT22;14507;52.418;13.398;2023-08-31T14:49:42;17.20;99.90
26952;DHT22;14507;52.418;13.398;2023-08-31T14:54:35;17.20;99.90
26952;DHT22;14507;52.418;13.398;2023-08-31T14:57:01;17.30;99.90
26952;DHT22;14507;52.418;13.398;2023-08-31T14:59:29;17.40;99.90
26952;DHT22;14507;52.418;13.398;2023-08-31T15:01:54;17.50;99.90
26952;DHT22;14507;52.418;13.398;2023-08-31T15:04:20;17.50;99.90
26952;DHT22;14507;52.418;13.398;2023-08-31T15:06:45;17.60;99.90
26952;DHT22;14507;52.418;13.398;2023-08-31T15:09:11;17.60;99.90
26952;DHT22;14507;52.418;13.398;2023-08-31T15:11:37;17.60;99.90
26952;DHT22;14507;52.418;13.398;2023-08-31T15:14:04;17.50;99.90
26952;DHT22;14507;52.418;13.398;2023-08-31T15:16:30;17.40;99.90
26952;DHT22;14507;52.418;13.398;2023-08-31T15:18:59;17.30;99.90
26952;DHT22;14507;52.418;13.398;2023-08-31T15:21:24;17.30;99.90
26952;DHT22;14507;52.418;13.398;2023-08-31T15:23:50;17.10;99.90
26952;DHT22;14507;52.418;13.398;2023-08-31T15:26:16;17.20;99.90
26952;DHT22;14507;52.418;13.398;2023-08-31T15:31:12;17.00;99.90
26952;DHT22;14507;52.418;13.398;2023-08-31T15:33:38;17.30;99.90
26952;DHT22;14507;52.418;13.398;2023-08-31T15:36:08;17.20;99.90
26952;DHT22;14507;52.418;13.398;2023-08-31T15:38:34;17.20;99.90
26952;DHT22;14507;52.418;13.398;2023-08-31T15:41:01;17.20;99.90
26952;DHT22;14507;52.418;13.398;2023-08-31T15:43:31;17.20;99.90
26952;DHT22;14507;52.418;13.398;2023-08-31T15:45:58;17.20;99.90
26952;DHT22;14507;52.418;13.398;2023-08-31T15:48:24;17.20;99.90
26952;DHT22;14507;52.418;13.398;2023-08-31T15:50:50;17.20;99.90
26952;DHT22;14507;52.418;13.398;2023-08-31T15:53:15;17.20;99.90
26952;DHT22;14507;52.418;13.398;2023-08-31T15:55:41;17.30;99.90
26952;DHT22;14507;52.418;13.398;2023-08-31T16:00:35;17.60;99.90
26952;DHT22;14507;52.418;13.398;2023-08-31T16:03:02;17.20;99.90
26952;DHT22;14507;52.418;13.398;2023-08-31T16:05:28;17.10;99.90
26952;DHT22;14507;52.418;13.398;2023-08-31T16:07:53;17.10;99.90
26952;DHT22;14507;52.418;13.398;2023-08-31T16:10:19;17.00;99.90
26952;DHT22;14507;52.418;13.398;2023-08-31T16:12:45;17.00;99.90
26952;DHT22;14507;52.418;13.398;2023-08-31T16:15:10;16.90;99.90
26952;DHT22;14507;52.418;13.398;2023-08-31T16:17:36;16.90;99.90